Time,TemperatureF,DewpointF,PressureIn,WindDirection,WindDirectionDegrees,WindSpeedMPH,WindSpeedGustMPH,Humidity,HourlyPrecipIn,Conditions,Clouds,dailyrainin,SoftwareType,DateUTC
2013-02-23 00:00:00,20.8,17.6,29.68,ENE,68,0.0,0.0,87,0.00,,SKC,0.00,VWS V14.01,2013-02-23 06:00:00,
2013-02-23 00:20:00,21.2,18.2,29.68,ENE,68,0.0,0.0,88,0.00,,SKC,0.00,VWS V14.01,2013-02-23 06:20:00,
2013-02-23 00:40:00,21.4,18.4,29.68,ENE,68,0.0,0.0,88,0.00,,SKC,0.00,VWS V14.01,2013-02-23 06:40:00,
2013-02-23 01:00:00,21.9,18.9,29.68,ENE,68,0.0,0.0,88,0.00,,SKC,0.00,VWS V14.01,2013-02-23 07:00:00,
2013-02-23 01:20:00,22.1,19.4,29.68,ENE,68,0.0,0.0,89,0.00,,SKC,0.00,VWS V14.01,2013-02-23 07:20:00,
2013-02-23 01:40:00,22.3,19.5,29.68,ENE,68,1.0,2.0,89,0.00,,SKC,0.00,VWS V14.01,2013-02-23 07:40:00,
2013-02-23 02:00:00,22.5,19.7,29.65,ENE,68,0.0,2.3,89,0.00,,SKC,0.00,VWS V14.01,2013-02-23 08:00:00,
2013-02-23 02:20:00,22.5,19.7,29.65,ENE,68,0.0,0.0,89,0.00,,SKC,0.00,VWS V14.01,2013-02-23 08:20:00,
2013-02-23 02:40:00,22.6,19.9,29.65,ENE,68,0.0,0.0,89,0.00,,SKC,0.00,VWS V14.01,2013-02-23 08:40:00,
2013-02-23 03:00:00,22.6,20.1,29.65,ENE,68,0.0,0.0,90,0.00,,SKC,0.00,VWS V14.01,2013-02-23 09:00:00,
2013-02-23 03:20:00,22.5,19.7,29.65,ENE,68,0.0,0.0,89,0.00,,SKC,0.00,VWS V14.01,2013-02-23 09:20:00,
2013-02-23 03:40:00,22.6,20.1,29.65,ENE,68,0.0,0.0,90,0.00,,SKC,0.00,VWS V14.01,2013-02-23 09:40:00,
2013-02-23 04:00:00,22.6,20.1,29.65,ENE,68,0.0,0.0,90,0.00,,SKC,0.00,VWS V14.01,2013-02-23 10:00:00,
2013-02-23 04:20:00,22.6,20.1,29.65,ENE,68,0.0,2.0,90,0.00,,SKC,0.00,VWS V14.01,2013-02-23 10:20:00,
2013-02-23 04:40:00,22.6,20.1,29.65,ENE,68,0.0,2.3,90,0.00,,SKC,0.00,VWS V14.01,2013-02-23 10:40:00,
2013-02-23 05:00:00,22.8,20.3,29.65,ENE,68,0.0,0.0,90,0.00,,SKC,0.00,VWS V14.01,2013-02-23 11:00:00,
2013-02-23 05:20:00,22.8,20.3,29.65,ENE,68,0.0,0.0,90,0.00,,SKC,0.00,VWS V14.01,2013-02-23 11:20:00,
2013-02-23 05:40:00,22.8,20.6,29.65,ENE,68,0.0,0.0,91,0.00,,SKC,0.00,VWS V14.01,2013-02-23 11:40:00,
2013-02-23 06:00:00,22.8,20.6,29.65,ENE,68,0.0,0.0,91,0.00,,SKC,0.00,VWS V14.01,2013-02-23 12:00:00,
2013-02-23 06:20:00,23.0,20.8,29.65,ENE,68,0.0,0.0,91,0.00,,SKC,0.00,VWS V14.01,2013-02-23 12:20:00,
2013-02-23 06:40:00,23.0,20.8,29.65,East,90,0.0,0.0,91,0.00,,SKC,0.00,VWS V14.01,2013-02-23 12:40:00,
2013-02-23 07:00:00,23.2,20.7,29.65,East,90,0.0,0.0,90,0.00,,SKC,0.00,VWS V14.01,2013-02-23 13:00:00,
2013-02-23 07:20:00,23.9,21.7,29.68,East,90,0.0,0.0,91,0.00,,SKC,0.00,VWS V14.01,2013-02-23 13:20:00,
2013-02-23 07:40:00,24.4,21.9,29.65,East,90,0.0,2.3,90,0.00,,SKC,0.00,VWS V14.01,2013-02-23 13:40:00,
2013-02-23 08:00:00,25.2,22.6,29.65,East,90,1.5,2.3,90,0.00,,SKC,0.00,VWS V14.01,2013-02-23 14:00:00,
2013-02-23 08:20:00,25.3,22.6,29.68,East,90,0.0,2.3,89,0.00,,SKC,0.00,VWS V14.01,2013-02-23 14:20:00,
2013-02-23 08:40:00,25.3,22.6,29.68,East,90,1.3,3.9,89,0.00,,SKC,0.00,VWS V14.01,2013-02-23 14:40:00,
2013-02-23 09:00:00,26.2,23.7,29.68,East,90,0.0,2.3,90,0.00,,SKC,0.00,VWS V14.01,2013-02-23 15:00:00,
2013-02-23 09:20:00,27.7,24.9,29.68,East,90,0.0,2.3,89,0.00,,SKC,0.00,VWS V14.01,2013-02-23 15:20:00,
2013-02-23 09:40:00,28.6,25.2,29.68,East,90,1.0,3.9,87,0.00,,SKC,0.00,VWS V14.01,2013-02-23 15:40:00,
2013-02-23 10:00:00,29.3,25.6,29.68,East,90,0.0,2.3,86,0.00,,SKC,0.00,VWS V14.01,2013-02-23 16:00:00,
2013-02-23 10:20:00,30.0,25.8,29.68,East,90,0.0,2.7,84,0.00,,SKC,0.00,VWS V14.01,2013-02-23 16:20:00,
2013-02-23 10:40:00,30.0,25.5,29.68,NNE,22,1.3,3.9,83,0.00,,SKC,0.00,VWS V14.01,2013-02-23 16:40:00,
2013-02-23 11:00:00,31.3,25.8,29.68,ENE,68,0.0,3.5,80,0.00,,SKC,0.00,VWS V14.01,2013-02-23 17:00:00,
2013-02-23 11:20:00,31.6,25.6,29.68,ENE,68,0.0,3.9,78,0.00,,SKC,0.00,VWS V14.01,2013-02-23 17:20:00,
2013-02-23 11:40:00,33.1,26.7,29.68,North,0,2.3,4.7,77,0.00,,SKC,0.00,VWS V14.01,2013-02-23 17:40:00,
2013-02-23 12:00:00,32.5,25.8,29.68,NNW,338,2.6,4.7,76,0.00,,SKC,0.00,VWS V14.01,2013-02-23 18:00:00,
2013-02-23 12:20:00,32.9,25.5,29.68,SSW,202,1.3,5.1,74,0.00,,SKC,0.00,VWS V14.01,2013-02-23 18:20:00,
2013-02-23 12:40:00,33.1,25.7,29.68,ENE,68,1.3,5.1,74,0.00,,SKC,0.00,VWS V14.01,2013-02-23 18:40:00,
2013-02-23 13:00:00,34.2,25.4,29.68,SW,225,1.8,5.5,70,0.00,,SKC,0.00,VWS V14.01,2013-02-23 19:00:00,
2013-02-23 13:20:00,33.1,23.3,29.68,SSW,202,0.0,7.0,67,0.00,,SKC,0.00,VWS V14.01,2013-02-23 19:20:00,
2013-02-23 13:40:00,35.1,25.6,29.68,South,180,0.0,6.3,68,0.00,,SKC,0.00,VWS V14.01,2013-02-23 19:40:00,
2013-02-23 14:00:00,32.5,22.8,29.68,SW,225,0.0,6.3,67,0.00,,SKC,0.00,VWS V14.01,2013-02-23 20:00:00,
2013-02-23 14:20:00,33.4,24.7,29.68,SSW,202,1.5,4.7,70,0.00,,SKC,0.00,VWS V14.01,2013-02-23 20:20:00,
2013-02-23 14:40:00,32.9,23.5,29.68,SSW,202,0.0,5.1,68,0.00,,SKC,0.00,VWS V14.01,2013-02-23 20:40:00,
2013-02-23 15:00:00,32.0,23.0,29.68,NNW,338,2.3,6.3,69,0.00,,SKC,0.00,VWS V14.01,2013-02-23 21:00:00,
2013-02-23 15:20:00,32.2,23.5,29.68,SSW,202,0.0,5.9,70,0.00,,SKC,0.00,VWS V14.01,2013-02-23 21:20:00,
2013-02-23 15:40:00,32.0,23.3,29.68,SSW,202,0.0,4.7,70,0.00,,SKC,0.00,VWS V14.01,2013-02-23 21:40:00,
2013-02-23 16:00:00,32.2,24.2,29.68,SSW,202,0.0,3.5,72,0.00,,SKC,0.00,VWS V14.01,2013-02-23 22:00:00,
2013-02-23 16:20:00,31.3,23.3,29.68,WNW,292,0.0,5.1,72,0.00,,SKC,0.00,VWS V14.01,2013-02-23 22:20:00,
2013-02-23 16:40:00,30.7,22.8,29.68,SSW,202,0.0,4.7,72,0.00,,SKC,0.00,VWS V14.01,2013-02-23 22:40:00,
2013-02-23 17:00:00,30.4,23.1,29.71,SSW,202,0.0,2.3,74,0.00,,SKC,0.00,VWS V14.01,2013-02-23 23:00:00,
2013-02-23 17:20:00,30.0,23.4,29.71,SSW,202,0.0,2.3,76,0.00,,SKC,0.00,VWS V14.01,2013-02-23 23:20:00,
2013-02-23 17:40:00,29.5,23.5,29.71,SSE,158,0.0,4.3,78,0.00,,SKC,0.00,VWS V14.01,2013-02-23 23:40:00,
2013-02-23 18:00:00,28.8,23.1,29.71,South,180,0.0,0.0,79,0.00,,SKC,0.00,VWS V14.01,2013-02-24 00:00:00,
2013-02-23 18:20:00,28.2,23.1,29.71,South,180,0.0,2.7,81,0.00,,SKC,0.00,VWS V14.01,2013-02-24 00:20:00,
2013-02-23 18:40:00,27.9,23.4,29.71,South,180,0.0,0.0,83,0.00,,SKC,0.00,VWS V14.01,2013-02-24 00:40:00,
2013-02-23 19:00:00,27.5,23.3,29.74,South,180,0.0,0.0,84,0.00,,SKC,0.00,VWS V14.01,2013-02-24 01:00:00,
2013-02-23 19:20:00,27.0,23.1,29.71,South,180,0.0,0.0,85,0.00,,SKC,0.00,VWS V14.01,2013-02-24 01:20:00,
2013-02-23 19:40:00,26.2,22.6,29.71,South,180,0.0,0.0,86,0.00,,SKC,0.00,VWS V14.01,2013-02-24 01:40:00,
2013-02-23 20:00:00,26.1,22.7,29.74,South,180,0.0,0.0,87,0.00,,SKC,0.00,VWS V14.01,2013-02-24 02:00:00,
2013-02-23 20:20:00,26.1,22.7,29.74,South,180,0.0,0.0,87,0.00,,SKC,0.00,VWS V14.01,2013-02-24 02:20:00,
2013-02-23 20:40:00,26.1,23.0,29.74,South,180,0.0,0.0,88,0.00,,SKC,0.00,VWS V14.01,2013-02-24 02:40:00,
2013-02-23 21:00:00,26.2,23.2,29.74,South,180,0.0,0.0,88,0.00,,SKC,0.00,VWS V14.01,2013-02-24 03:00:00,
2013-02-23 21:20:00,26.2,23.2,29.74,South,180,0.0,0.0,88,0.00,,SKC,0.00,VWS V14.01,2013-02-24 03:20:00,
2013-02-23 21:40:00,26.4,23.4,29.74,South,180,0.0,0.0,88,0.00,,SKC,0.00,VWS V14.01,2013-02-24 03:40:00,
2013-02-23 22:00:00,26.4,23.6,29.74,South,180,0.0,0.0,89,0.00,,SKC,0.00,VWS V14.01,2013-02-24 04:00:00,
2013-02-23 22:20:00,26.6,23.8,29.74,South,180,0.0,0.0,89,0.00,,SKC,0.00,VWS V14.01,2013-02-24 04:20:00,
2013-02-23 22:40:00,26.6,23.8,29.74,South,180,0.0,0.0,89,0.00,,SKC,0.00,VWS V14.01,2013-02-24 04:40:00,
2013-02-23 23:00:00,26.6,23.8,29.74,South,180,0.0,1.6,89,0.00,,SKC,0.00,VWS V14.01,2013-02-24 05:00:00,
2013-02-23 23:20:00,26.8,23.7,29.74,SSW,202,0.0,2.0,88,0.00,,SKC,0.00,VWS V14.01,2013-02-24 05:20:00,
2013-02-23 23:40:00,27.0,23.9,29.74,South,180,0.0,2.0,88,0.00,,SKC,0.00,VWS V14.01,2013-02-24 05:40:00,